sensor_id;sensor_type;location;lat;lon;timestamp;P1;durP1;ratioP1;P2;durP2;ratioP2
64868;SDS011;51349;52.424;10.840;2023-03-11T00:03:31;5.53;;;5.03;;
64868;SDS011;51349;52.424;10.840;2023-03-11T00:08:32;4.70;;;4.30;;
64868;SDS011;51349;52.424;10.840;2023-03-11T00:13:33;6.10;;;5.60;;
64868;SDS011;51349;52.424;10.840;2023-03-11T00:18:35;5.10;;;4.70;;
64868;SDS011;51349;52.424;10.840;2023-03-11T00:23:36;3.47;;;3.17;;
64868;SDS011;51349;52.424;10.840;2023-03-11T00:28:37;5.03;;;4.63;;
64868;SDS011;51349;52.424;10.840;2023-03-11T00:33:37;4.80;;;4.10;;
64868;SDS011;51349;52.424;10.840;2023-03-11T00:38:38;4.47;;;4.07;;
64868;SDS011;51349;52.424;10.840;2023-03-11T00:43:39;4.43;;;4.03;;
64868;SDS011;51349;52.424;10.840;2023-03-11T00:48:39;4.43;;;3.97;;
64868;SDS011;51349;52.424;10.840;2023-03-11T00:53:41;4.50;;;4.10;;
64868;SDS011;51349;52.424;10.840;2023-03-11T00:58:42;4.33;;;3.93;;
64868;SDS011;51349;52.424;10.840;2023-03-11T01:03:44;4.73;;;4.30;;
64868;SDS011;51349;52.424;10.840;2023-03-11T01:08:45;3.67;;;3.37;;
64868;SDS011;51349;52.424;10.840;2023-03-11T01:13:46;4.40;;;4.00;;
64868;SDS011;51349;52.424;10.840;2023-03-11T01:18:46;2.73;;;2.53;;
64868;SDS011;51349;52.424;10.840;2023-03-11T01:23:47;3.73;;;3.43;;
64868;SDS011;51349;52.424;10.840;2023-03-11T01:28:47;4.50;;;4.10;;
64868;SDS011;51349;52.424;10.840;2023-03-11T01:33:48;4.23;;;3.87;;
64868;SDS011;51349;52.424;10.840;2023-03-11T01:38:49;4.23;;;3.83;;
64868;SDS011;51349;52.424;10.840;2023-03-11T01:43:51;3.03;;;2.80;;
64868;SDS011;51349;52.424;10.840;2023-03-11T01:48:58;5.33;;;4.77;;
64868;SDS011;51349;52.424;10.840;2023-03-11T01:54:04;6.40;;;5.80;;
64868;SDS011;51349;52.424;10.840;2023-03-11T01:59:10;5.83;;;5.33;;
64868;SDS011;51349;52.424;10.840;2023-03-11T02:04:13;6.97;;;6.30;;
64868;SDS011;51349;52.424;10.840;2023-03-11T02:09:15;7.70;;;7.00;;
64868;SDS011;51349;52.424;10.840;2023-03-11T02:14:15;6.23;;;5.63;;
64868;SDS011;51349;52.424;10.840;2023-03-11T02:29:45;5.37;;;4.60;;
64868;SDS011;51349;52.424;10.840;2023-03-11T02:34:48;10.03;;;8.47;;
64868;SDS011;51349;52.424;10.840;2023-03-11T02:39:50;5.00;;;4.53;;
64868;SDS011;51349;52.424;10.840;2023-03-11T02:45:11;7.30;;;6.60;;
64868;SDS011;51349;52.424;10.840;2023-03-11T02:50:15;8.30;;;6.93;;
64868;SDS011;51349;52.424;10.840;2023-03-11T02:55:17;7.70;;;6.93;;
64868;SDS011;51349;52.424;10.840;2023-03-11T03:00:22;7.60;;;6.90;;
64868;SDS011;51349;52.424;10.840;2023-03-11T03:05:23;8.47;;;7.23;;
64868;SDS011;51349;52.424;10.840;2023-03-11T03:10:24;8.43;;;6.63;;
64868;SDS011;51349;52.424;10.840;2023-03-11T03:15:25;7.47;;;6.17;;
64868;SDS011;51349;52.424;10.840;2023-03-11T03:20:29;7.80;;;6.47;;
64868;SDS011;51349;52.424;10.840;2023-03-11T03:25:29;8.80;;;7.60;;
64868;SDS011;51349;52.424;10.840;2023-03-11T03:30:30;8.00;;;7.20;;
64868;SDS011;51349;52.424;10.840;2023-03-11T03:35:31;8.93;;;8.03;;
64868;SDS011;51349;52.424;10.840;2023-03-11T03:40:32;8.47;;;7.40;;
64868;SDS011;51349;52.424;10.840;2023-03-11T03:45:33;8.07;;;7.27;;
64868;SDS011;51349;52.424;10.840;2023-03-11T03:50:33;7.90;;;7.10;;
64868;SDS011;51349;52.424;10.840;2023-03-11T03:55:34;7.23;;;6.53;;
64868;SDS011;51349;52.424;10.840;2023-03-11T04:00:35;6.73;;;6.07;;
64868;SDS011;51349;52.424;10.840;2023-03-11T04:05:36;8.80;;;7.50;;
64868;SDS011;51349;52.424;10.840;2023-03-11T04:10:36;7.23;;;6.53;;
64868;SDS011;51349;52.424;10.840;2023-03-11T04:15:37;7.77;;;6.97;;
64868;SDS011;51349;52.424;10.840;2023-03-11T04:20:38;9.70;;;7.97;;
64868;SDS011;51349;52.424;10.840;2023-03-11T04:25:39;9.40;;;7.30;;
64868;SDS011;51349;52.424;10.840;2023-03-11T04:30:40;8.37;;;7.47;;
64868;SDS011;51349;52.424;10.840;2023-03-11T04:35:41;9.03;;;7.73;;
64868;SDS011;51349;52.424;10.840;2023-03-11T04:40:42;8.67;;;7.33;;
64868;SDS011;51349;52.424;10.840;2023-03-11T04:45:42;10.77;;;7.97;;
64868;SDS011;51349;52.424;10.840;2023-03-11T04:50:43;9.73;;;7.77;;
64868;SDS011;51349;52.424;10.840;2023-03-11T04:55:43;8.53;;;7.57;;
64868;SDS011;51349;52.424;10.840;2023-03-11T05:00:46;8.03;;;6.50;;
64868;SDS011;51349;52.424;10.840;2023-03-11T05:05:46;8.57;;;7.00;;
64868;SDS011;51349;52.424;10.840;2023-03-11T05:10:47;7.33;;;5.30;;
64868;SDS011;51349;52.424;10.840;2023-03-11T05:15:49;7.20;;;4.80;;
64868;SDS011;51349;52.424;10.840;2023-03-11T05:20:50;5.10;;;3.87;;
64868;SDS011;51349;52.424;10.840;2023-03-11T05:25:52;3.90;;;3.50;;
64868;SDS011;51349;52.424;10.840;2023-03-11T05:30:52;5.07;;;4.57;;
64868;SDS011;51349;52.424;10.840;2023-03-11T05:35:53;4.93;;;4.53;;
64868;SDS011;51349;52.424;10.840;2023-03-11T05:40:54;5.03;;;4.53;;
64868;SDS011;51349;52.424;10.840;2023-03-11T05:45:54;6.37;;;4.70;;
64868;SDS011;51349;52.424;10.840;2023-03-11T05:51:04;4.00;;;3.43;;
64868;SDS011;51349;52.424;10.840;2023-03-11T05:56:09;4.97;;;3.77;;
64868;SDS011;51349;52.424;10.840;2023-03-11T06:01:10;4.20;;;3.73;;
64868;SDS011;51349;52.424;10.840;2023-03-11T06:06:12;4.77;;;4.37;;
64868;SDS011;51349;52.424;10.840;2023-03-11T06:11:13;5.23;;;4.73;;
64868;SDS011;51349;52.424;10.840;2023-03-11T06:16:14;4.37;;;3.83;;
64868;SDS011;51349;52.424;10.840;2023-03-11T06:21:19;3.90;;;3.60;;
64868;SDS011;51349;52.424;10.840;2023-03-11T06:26:21;4.27;;;3.87;;
64868;SDS011;51349;52.424;10.840;2023-03-11T06:31:26;4.23;;;3.83;;
64868;SDS011;51349;52.424;10.840;2023-03-11T06:36:28;4.20;;;3.80;;
64868;SDS011;51349;52.424;10.840;2023-03-11T06:41:31;4.23;;;3.80;;
64868;SDS011;51349;52.424;10.840;2023-03-11T06:46:33;5.63;;;4.23;;
64868;SDS011;51349;52.424;10.840;2023-03-11T06:51:34;5.03;;;4.23;;
64868;SDS011;51349;52.424;10.840;2023-03-11T06:56:34;3.70;;;3.37;;
64868;SDS011;51349;52.424;10.840;2023-03-11T07:01:35;2.60;;;2.40;;
64868;SDS011;51349;52.424;10.840;2023-03-11T07:06:36;4.67;;;4.23;;
64868;SDS011;51349;52.424;10.840;2023-03-11T07:11:37;4.63;;;3.87;;
64868;SDS011;51349;52.424;10.840;2023-03-11T07:16:37;4.00;;;3.60;;
64868;SDS011;51349;52.424;10.840;2023-03-11T07:21:39;5.00;;;4.60;;
64868;SDS011;51349;52.424;10.840;2023-03-11T07:26:39;4.77;;;3.87;;
64868;SDS011;51349;52.424;10.840;2023-03-11T07:31:41;5.80;;;4.07;;
64868;SDS011;51349;52.424;10.840;2023-03-11T07:36:41;7.77;;;4.63;;
64868;SDS011;51349;52.424;10.840;2023-03-11T07:41:42;4.80;;;4.30;;
64868;SDS011;51349;52.424;10.840;2023-03-11T07:46:44;5.90;;;4.43;;
64868;SDS011;51349;52.424;10.840;2023-03-11T07:51:44;4.57;;;4.13;;
64868;SDS011;51349;52.424;10.840;2023-03-11T07:56:45;5.40;;;4.37;;
64868;SDS011;51349;52.424;10.840;2023-03-11T08:01:46;6.20;;;4.80;;
64868;SDS011;51349;52.424;10.840;2023-03-11T08:06:46;4.33;;;3.93;;
64868;SDS011;51349;52.424;10.840;2023-03-11T08:11:47;5.50;;;4.20;;
64868;SDS011;51349;52.424;10.840;2023-03-11T08:16:48;5.33;;;4.53;;
64868;SDS011;51349;52.424;10.840;2023-03-11T08:21:48;5.77;;;3.37;;
64868;SDS011;51349;52.424;10.840;2023-03-11T08:26:49;4.97;;;4.47;;
64868;SDS011;51349;52.424;10.840;2023-03-11T08:31:50;5.20;;;4.23;;
64868;SDS011;51349;52.424;10.840;2023-03-11T08:36:50;5.83;;;5.03;;
64868;SDS011;51349;52.424;10.840;2023-03-11T08:41:51;5.47;;;4.97;;
64868;SDS011;51349;52.424;10.840;2023-03-11T08:46:52;6.87;;;5.23;;
64868;SDS011;51349;52.424;10.840;2023-03-11T08:51:52;8.33;;;5.33;;
64868;SDS011;51349;52.424;10.840;2023-03-11T08:56:53;6.17;;;5.20;;
64868;SDS011;51349;52.424;10.840;2023-03-11T09:01:54;6.20;;;5.33;;
64868;SDS011;51349;52.424;10.840;2023-03-11T09:06:55;5.67;;;4.73;;
64868;SDS011;51349;52.424;10.840;2023-03-11T09:11:55;7.13;;;4.83;;
64868;SDS011;51349;52.424;10.840;2023-03-11T09:16:56;5.33;;;4.83;;
64868;SDS011;51349;52.424;10.840;2023-03-11T09:21:58;5.53;;;4.63;;
64868;SDS011;51349;52.424;10.840;2023-03-11T09:27:00;6.33;;;5.50;;
64868;SDS011;51349;52.424;10.840;2023-03-11T09:32:01;7.03;;;5.43;;
64868;SDS011;51349;52.424;10.840;2023-03-11T09:37:02;37.67;;;15.13;;
64868;SDS011;51349;52.424;10.840;2023-03-11T09:42:15;3.90;;;3.50;;
64868;SDS011;51349;52.424;10.840;2023-03-11T09:52:42;7.30;;;6.60;;
64868;SDS011;51349;52.424;10.840;2023-03-11T09:57:43;7.07;;;5.63;;
64868;SDS011;51349;52.424;10.840;2023-03-11T10:02:44;6.13;;;5.53;;
64868;SDS011;51349;52.424;10.840;2023-03-11T10:07:46;5.17;;;4.30;;
64868;SDS011;51349;52.424;10.840;2023-03-11T10:13:19;7.27;;;5.50;;
64868;SDS011;51349;52.424;10.840;2023-03-11T10:23:33;6.03;;;5.47;;
64868;SDS011;51349;52.424;10.840;2023-03-11T10:28:46;8.03;;;6.10;;
64868;SDS011;51349;52.424;10.840;2023-03-11T10:39:22;5.67;;;5.17;;
64868;SDS011;51349;52.424;10.840;2023-03-11T10:49:35;5.57;;;5.03;;
64868;SDS011;51349;52.424;10.840;2023-03-11T10:54:36;5.33;;;4.83;;
64868;SDS011;51349;52.424;10.840;2023-03-11T10:59:46;5.70;;;4.10;;
64868;SDS011;51349;52.424;10.840;2023-03-11T11:04:49;4.63;;;4.17;;
64868;SDS011;51349;52.424;10.840;2023-03-11T11:10:21;3.77;;;3.43;;
64868;SDS011;51349;52.424;10.840;2023-03-11T11:20:32;4.73;;;3.37;;
64868;SDS011;51349;52.424;10.840;2023-03-11T11:25:34;2.10;;;1.83;;
64868;SDS011;51349;52.424;10.840;2023-03-11T11:30:37;3.63;;;3.33;;
64868;SDS011;51349;52.424;10.840;2023-03-11T11:35:53;3.10;;;2.80;;
64868;SDS011;51349;52.424;10.840;2023-03-11T11:41:05;3.17;;;2.87;;
64868;SDS011;51349;52.424;10.840;2023-03-11T11:46:17;6.43;;;3.20;;
64868;SDS011;51349;52.424;10.840;2023-03-11T11:51:22;3.80;;;3.50;;
64868;SDS011;51349;52.424;10.840;2023-03-11T11:56:29;3.93;;;3.07;;
64868;SDS011;51349;52.424;10.840;2023-03-11T12:01:38;2.90;;;2.70;;
64868;SDS011;51349;52.424;10.840;2023-03-11T12:17:15;3.40;;;3.03;;
64868;SDS011;51349;52.424;10.840;2023-03-11T12:27:48;3.97;;;2.70;;
64868;SDS011;51349;52.424;10.840;2023-03-11T12:33:00;2.57;;;2.33;;
64868;SDS011;51349;52.424;10.840;2023-03-11T12:43:24;2.00;;;1.60;;
64868;SDS011;51349;52.424;10.840;2023-03-11T12:49:15;2.63;;;2.43;;
64868;SDS011;51349;52.424;10.840;2023-03-11T13:04:57;2.00;;;1.90;;
64868;SDS011;51349;52.424;10.840;2023-03-11T13:25:42;2.30;;;2.10;;
64868;SDS011;51349;52.424;10.840;2023-03-11T13:31:12;3.17;;;2.20;;
64868;SDS011;51349;52.424;10.840;2023-03-11T13:41:43;7.33;;;5.83;;
64868;SDS011;51349;52.424;10.840;2023-03-11T13:46:46;2.53;;;2.30;;
64868;SDS011;51349;52.424;10.840;2023-03-11T13:51:49;2.57;;;1.67;;
64868;SDS011;51349;52.424;10.840;2023-03-11T13:56:58;11.77;;;9.27;;
64868;SDS011;51349;52.424;10.840;2023-03-11T14:07:14;4.20;;;3.17;;
64868;SDS011;51349;52.424;10.840;2023-03-11T14:12:30;4.80;;;3.33;;
64868;SDS011;51349;52.424;10.840;2023-03-11T14:17:31;4.17;;;2.10;;
64868;SDS011;51349;52.424;10.840;2023-03-11T14:22:31;4.33;;;2.67;;
64868;SDS011;51349;52.424;10.840;2023-03-11T14:27:32;2.90;;;1.73;;
64868;SDS011;51349;52.424;10.840;2023-03-11T14:32:34;4.23;;;1.93;;
64868;SDS011;51349;52.424;10.840;2023-03-11T14:37:35;3.13;;;2.03;;
64868;SDS011;51349;52.424;10.840;2023-03-11T14:42:38;4.10;;;2.23;;
64868;SDS011;51349;52.424;10.840;2023-03-11T14:47:54;2.73;;;2.03;;
64868;SDS011;51349;52.424;10.840;2023-03-11T14:58:36;3.37;;;2.20;;
64868;SDS011;51349;52.424;10.840;2023-03-11T15:08:53;6.00;;;1.90;;
64868;SDS011;51349;52.424;10.840;2023-03-11T15:14:18;3.43;;;1.70;;
64868;SDS011;51349;52.424;10.840;2023-03-11T15:19:28;5.03;;;1.53;;
64868;SDS011;51349;52.424;10.840;2023-03-11T15:24:30;1.37;;;0.90;;
64868;SDS011;51349;52.424;10.840;2023-03-11T15:29:32;1.60;;;1.50;;
64868;SDS011;51349;52.424;10.840;2023-03-11T15:34:34;2.87;;;1.57;;
64868;SDS011;51349;52.424;10.840;2023-03-11T15:49:47;2.70;;;1.40;;
64868;SDS011;51349;52.424;10.840;2023-03-11T15:54:49;2.53;;;2.23;;
64868;SDS011;51349;52.424;10.840;2023-03-11T15:59:50;2.27;;;1.53;;
64868;SDS011;51349;52.424;10.840;2023-03-11T16:04:53;2.47;;;1.60;;
64868;SDS011;51349;52.424;10.840;2023-03-11T16:09:54;2.17;;;1.60;;
64868;SDS011;51349;52.424;10.840;2023-03-11T16:14:54;2.80;;;1.70;;
64868;SDS011;51349;52.424;10.840;2023-03-11T16:19:55;3.00;;;1.50;;
64868;SDS011;51349;52.424;10.840;2023-03-11T16:24:56;2.30;;;1.80;;
64868;SDS011;51349;52.424;10.840;2023-03-11T16:29:58;2.17;;;1.77;;
64868;SDS011;51349;52.424;10.840;2023-03-11T16:34:59;2.50;;;1.70;;
64868;SDS011;51349;52.424;10.840;2023-03-11T16:40:00;3.10;;;1.80;;
64868;SDS011;51349;52.424;10.840;2023-03-11T16:45:00;2.63;;;1.40;;
64868;SDS011;51349;52.424;10.840;2023-03-11T16:50:01;4.07;;;1.60;;
64868;SDS011;51349;52.424;10.840;2023-03-11T16:55:03;4.30;;;1.60;;
64868;SDS011;51349;52.424;10.840;2023-03-11T17:00:04;7.67;;;1.93;;
64868;SDS011;51349;52.424;10.840;2023-03-11T17:05:09;1.83;;;1.60;;
64868;SDS011;51349;52.424;10.840;2023-03-11T17:10:10;3.27;;;1.70;;
64868;SDS011;51349;52.424;10.840;2023-03-11T17:15:11;3.63;;;1.87;;
64868;SDS011;51349;52.424;10.840;2023-03-11T17:20:12;3.00;;;1.63;;
64868;SDS011;51349;52.424;10.840;2023-03-11T17:25:13;3.60;;;1.60;;
64868;SDS011;51349;52.424;10.840;2023-03-11T17:30:14;3.10;;;1.87;;
64868;SDS011;51349;52.424;10.840;2023-03-11T17:35:14;2.10;;;2.00;;
64868;SDS011;51349;52.424;10.840;2023-03-11T17:40:15;6.70;;;2.97;;
64868;SDS011;51349;52.424;10.840;2023-03-11T17:45:16;15.93;;;6.53;;
64868;SDS011;51349;52.424;10.840;2023-03-11T17:50:17;8.37;;;5.10;;
64868;SDS011;51349;52.424;10.840;2023-03-11T17:55:18;4.10;;;2.10;;
64868;SDS011;51349;52.424;10.840;2023-03-11T18:00:18;5.73;;;2.47;;
64868;SDS011;51349;52.424;10.840;2023-03-11T18:05:20;2.83;;;2.10;;
64868;SDS011;51349;52.424;10.840;2023-03-11T18:10:21;3.70;;;1.87;;
64868;SDS011;51349;52.424;10.840;2023-03-11T18:15:21;3.57;;;2.00;;
64868;SDS011;51349;52.424;10.840;2023-03-11T18:20:23;7.73;;;5.80;;
64868;SDS011;51349;52.424;10.840;2023-03-11T18:25:24;8.83;;;5.80;;
64868;SDS011;51349;52.424;10.840;2023-03-11T18:30:24;31.67;;;18.63;;
64868;SDS011;51349;52.424;10.840;2023-03-11T18:35:25;40.03;;;19.17;;
64868;SDS011;51349;52.424;10.840;2023-03-11T18:40:25;6.23;;;2.63;;
64868;SDS011;51349;52.424;10.840;2023-03-11T18:45:26;2.90;;;2.13;;
64868;SDS011;51349;52.424;10.840;2023-03-11T18:50:27;4.23;;;2.30;;
64868;SDS011;51349;52.424;10.840;2023-03-11T18:55:28;4.03;;;3.17;;
64868;SDS011;51349;52.424;10.840;2023-03-11T19:00:29;4.40;;;2.50;;
64868;SDS011;51349;52.424;10.840;2023-03-11T19:05:29;5.43;;;2.57;;
64868;SDS011;51349;52.424;10.840;2023-03-11T19:10:30;6.43;;;2.30;;
64868;SDS011;51349;52.424;10.840;2023-03-11T19:15:31;5.37;;;2.00;;
64868;SDS011;51349;52.424;10.840;2023-03-11T19:20:31;3.23;;;2.60;;
64868;SDS011;51349;52.424;10.840;2023-03-11T19:25:33;2.13;;;2.00;;
64868;SDS011;51349;52.424;10.840;2023-03-11T19:30:34;3.00;;;1.90;;
64868;SDS011;51349;52.424;10.840;2023-03-11T19:35:35;2.30;;;2.10;;
64868;SDS011;51349;52.424;10.840;2023-03-11T19:40:36;3.23;;;1.80;;
64868;SDS011;51349;52.424;10.840;2023-03-11T19:45:36;2.70;;;1.90;;
64868;SDS011;51349;52.424;10.840;2023-03-11T19:50:38;2.80;;;1.63;;
64868;SDS011;51349;52.424;10.840;2023-03-11T19:55:42;6.43;;;1.90;;
64868;SDS011;51349;52.424;10.840;2023-03-11T20:00:44;2.30;;;1.77;;
64868;SDS011;51349;52.424;10.840;2023-03-11T20:05:45;2.07;;;1.90;;
64868;SDS011;51349;52.424;10.840;2023-03-11T20:10:48;3.67;;;2.20;;
64868;SDS011;51349;52.424;10.840;2023-03-11T20:15:49;2.90;;;1.97;;
64868;SDS011;51349;52.424;10.840;2023-03-11T20:20:50;5.57;;;2.10;;
64868;SDS011;51349;52.424;10.840;2023-03-11T20:25:52;2.63;;;2.20;;
64868;SDS011;51349;52.424;10.840;2023-03-11T20:30:53;3.20;;;2.00;;
64868;SDS011;51349;52.424;10.840;2023-03-11T20:36:01;3.13;;;2.17;;
64868;SDS011;51349;52.424;10.840;2023-03-11T20:41:06;2.10;;;1.90;;
64868;SDS011;51349;52.424;10.840;2023-03-11T20:46:08;4.67;;;2.20;;
64868;SDS011;51349;52.424;10.840;2023-03-11T20:51:14;2.87;;;1.80;;
64868;SDS011;51349;52.424;10.840;2023-03-11T20:56:19;4.23;;;1.90;;
64868;SDS011;51349;52.424;10.840;2023-03-11T21:01:22;3.83;;;2.07;;
64868;SDS011;51349;52.424;10.840;2023-03-11T21:06:26;2.50;;;1.97;;
64868;SDS011;51349;52.424;10.840;2023-03-11T21:11:32;2.67;;;2.07;;
64868;SDS011;51349;52.424;10.840;2023-03-11T21:16:33;3.60;;;1.77;;
64868;SDS011;51349;52.424;10.840;2023-03-11T21:21:34;2.23;;;1.97;;
64868;SDS011;51349;52.424;10.840;2023-03-11T21:26:35;3.33;;;2.17;;
64868;SDS011;51349;52.424;10.840;2023-03-11T21:31:36;2.33;;;1.60;;
64868;SDS011;51349;52.424;10.840;2023-03-11T21:36:36;2.03;;;1.80;;
64868;SDS011;51349;52.424;10.840;2023-03-11T21:41:37;4.17;;;2.10;;
64868;SDS011;51349;52.424;10.840;2023-03-11T21:46:38;2.97;;;1.60;;
64868;SDS011;51349;52.424;10.840;2023-03-11T21:51:39;5.77;;;2.00;;
64868;SDS011;51349;52.424;10.840;2023-03-11T21:56:40;3.03;;;2.00;;
64868;SDS011;51349;52.424;10.840;2023-03-11T22:01:40;2.93;;;2.07;;
64868;SDS011;51349;52.424;10.840;2023-03-11T22:06:41;3.77;;;2.20;;
64868;SDS011;51349;52.424;10.840;2023-03-11T22:11:42;3.10;;;2.03;;
64868;SDS011;51349;52.424;10.840;2023-03-11T22:16:42;4.23;;;2.03;;
64868;SDS011;51349;52.424;10.840;2023-03-11T22:21:43;2.00;;;1.90;;
64868;SDS011;51349;52.424;10.840;2023-03-11T22:26:44;2.60;;;2.03;;
64868;SDS011;51349;52.424;10.840;2023-03-11T22:31:44;2.83;;;2.20;;
64868;SDS011;51349;52.424;10.840;2023-03-11T22:36:45;3.87;;;2.03;;
64868;SDS011;51349;52.424;10.840;2023-03-11T22:41:46;4.57;;;1.70;;
64868;SDS011;51349;52.424;10.840;2023-03-11T22:46:46;3.23;;;2.33;;
64868;SDS011;51349;52.424;10.840;2023-03-11T22:51:47;2.50;;;2.00;;
64868;SDS011;51349;52.424;10.840;2023-03-11T22:56:48;2.93;;;2.00;;
64868;SDS011;51349;52.424;10.840;2023-03-11T23:01:48;2.33;;;1.70;;
64868;SDS011;51349;52.424;10.840;2023-03-11T23:06:49;1.57;;;1.47;;
64868;SDS011;51349;52.424;10.840;2023-03-11T23:11:50;2.67;;;2.00;;
64868;SDS011;51349;52.424;10.840;2023-03-11T23:16:51;3.00;;;2.20;;
64868;SDS011;51349;52.424;10.840;2023-03-11T23:21:52;3.33;;;2.10;;
64868;SDS011;51349;52.424;10.840;2023-03-11T23:26:52;2.30;;;2.10;;
64868;SDS011;51349;52.424;10.840;2023-03-11T23:31:53;2.03;;;1.90;;
64868;SDS011;51349;52.424;10.840;2023-03-11T23:36:54;2.10;;;1.70;;
64868;SDS011;51349;52.424;10.840;2023-03-11T23:41:54;1.93;;;1.70;;
64868;SDS011;51349;52.424;10.840;2023-03-11T23:46:55;2.60;;;2.40;;
64868;SDS011;51349;52.424;10.840;2023-03-11T23:51:56;2.27;;;2.03;;
64868;SDS011;51349;52.424;10.840;2023-03-11T23:56:56;1.57;;;1.47;;
